Asmara, Eritrea
Current Conditions -  °F | °C
As of 3:00 PM on Sunday 23 Nov 2014 (Local Time) from OEGN Reporting Station
Few Clouds Few Clouds  
Wind Chill: 90°   Ceiling: Unl
Heat Index: 100°   Visibility: 6mi
Dew Point: 75°   Wind: 15mph
Humidity: 62%   Direction: 200°SSW
Pressure: 29.83"   Gusts: NA
Location:  15.33°N, 38.94°E
Report Text: OEGN 231200Z 20013KT 9999 FEW030 32/24 Q1010 NOSIG
Loading
Personal Weather Stations






























Interactive Weather Map New forecast layout! Learn more

10-Day Weather Forecast

Advertisements
Track Severe Weather on mobile